This is the latest recevied weather packets stored in our database for station/object OK1KKY-18. If no packets are shown the sender has not sent any weather packets the latest 10 day(s).
| Time | Temp. | Humidity | Pressure | Rain* | Wind** | Luminosity | Snow |
|---|---|---|---|---|---|---|---|
| 1777535861 | 7.78° C | 33% | 1031.1 hPa | - | - | - | - |
| 1777535261 | 7.22° C | 35% | 1031.2 hPa | - | - | - | - |
| 1777534661 | 7.22° C | 35% | 1031.3 hPa | - | - | - | - |
| 1777534060 | 6.67° C | 36% | 1031.2 hPa | - | - | - | - |
| 1777533460 | 6.67° C | 37% | 1031.3 hPa | - | - | - | - |
| 1777532860 | 6.11° C | 38% | 1031.4 hPa | - | - | - | - |
| 1777532261 | 6.11° C | 38% | 1031.4 hPa | - | - | - | - |
| 1777531661 | 5.56° C | 40% | 1031.5 hPa | - | - | - | - |
| 1777531060 | 5° C | 45% | 1031.3 hPa | - | - | - | - |
| 1777530461 | 3.33° C | 50% | 1031.4 hPa | - | - | - | - |
| 1777529860 | 1.67° C | 55% | 1031.5 hPa | - | - | - | - |
| 1777529260 | 1.11° C | 56% | 1031.4 hPa | - | - | - | - |
| 1777528660 | 1.11° C | 57% | 1031.4 hPa | - | - | - | - |
| 1777528060 | 0° C | 61% | 1031.3 hPa | - | - | - | - |
| 1777527460 | -0.56° C | 64% | 1031.4 hPa | - | - | - | - |
| 1777526861 | -1.11° C | 64% | 1031.4 hPa | - | - | - | - |
| 1777526261 | -1.67° C | 66% | 1031.4 hPa | - | - | - | - |
| 1777525661 | -2.22° C | 67% | 1031.5 hPa | - | - | - | - |
| 1777525061 | -2.22° C | 67% | 1031.6 hPa | - | - | - | - |
| 1777524461 | -2.22° C | 68% | 1031.4 hPa | - | - | - | - |
| 1777523860 | -2.22° C | 67% | 1031.4 hPa | - | - | - | - |
| 1777523260 | -2.22° C | 67% | 1031.3 hPa | - | - | - | - |
| 1777522661 | -2.22° C | 66% | 1031.3 hPa | - | - | - | - |
| 1777522060 | -2.22° C | 67% | 1031.2 hPa | - | - | - | - |
| 1777521460 | -2.22° C | 67% | 1031.3 hPa | - | - | - | - |
* Rain since midnight (hover to see other rain measurements)
** Current wind speed in m/s (hover to see current wind gust speed)